aviador You're here:

PAEI Decoded Metar

FAIRBANKS in AK, USA
Report Time2018-05-20 22:56:00
UTC Time2018-05-20 23:25:23
Flight Rules vfr VFR
WindCalm
Visibility9999 m
Phenomena:N/A
Clouds:Few 070 Hf
Broken 100 Hf
Expected CloudBase > 6,800 ft AGL from Temp-Dew spread
Ceiling10,000 ft
Temp20°C (ISA +6)
Dew Point03°C (33% RH)
AAT18.5°C
QNH998 hPa
Density Alt1,873 ft
Elevation548 ft
Report Wrong Elevation
Raw Report
PAEI 202256Z AUTO 00000KT 10SM FEW070 BKN100 20/03 A2946=

Extra information for PAEI:More info

Metar Taf Metar & Taf Last 4 Metars F.Rules Stats Wind Profile Meteogram Temp Stats Airport Information Weather charts Add Link Nearby VenuesMetar ALERT Operation Metar Decoded Social comments

AIRNAV info for PAEI